sensor_id;sensor_type;location;lat;lon;timestamp;pressure;altitude;pressure_sealevel;temperature;humidity
55757;BME280;41676;44.610;44.078;2022-12-05T00:01:42;102645.66;;;-4.73;91.66
55757;BME280;41676;44.610;44.078;2022-12-05T00:06:43;102629.38;;;-4.87;91.61
55757;BME280;41676;44.610;44.078;2022-12-05T00:11:44;102603.66;;;-5.12;91.71
55757;BME280;41676;44.610;44.078;2022-12-05T00:16:45;102631.13;;;-4.91;91.58
55757;BME280;41676;44.610;44.078;2022-12-05T00:21:46;102536.59;;;-5.47;91.51
55757;BME280;41676;44.610;44.078;2022-12-05T00:26:47;102551.97;;;-5.30;91.54
55757;BME280;41676;44.610;44.078;2022-12-05T00:31:47;102583.06;;;-5.30;91.23
55757;BME280;41676;44.610;44.078;2022-12-05T00:36:49;102599.50;;;-5.34;92.19
55757;BME280;41676;44.610;44.078;2022-12-05T00:41:49;102610.63;;;-5.20;92.11
55757;BME280;41676;44.610;44.078;2022-12-05T00:46:50;102593.44;;;-5.29;92.00
55757;BME280;41676;44.610;44.078;2022-12-05T00:51:51;102557.34;;;-5.55;91.93
55757;BME280;41676;44.610;44.078;2022-12-05T00:56:52;102614.97;;;-5.27;92.43
55757;BME280;41676;44.610;44.078;2022-12-05T01:01:55;102558.25;;;-5.59;92.03
55757;BME280;41676;44.610;44.078;2022-12-05T01:06:57;102616.69;;;-5.19;91.98
55757;BME280;41676;44.610;44.078;2022-12-05T01:11:58;102578.81;;;-5.42;92.23
55757;BME280;41676;44.610;44.078;2022-12-05T01:16:59;102616.69;;;-5.22;92.06
55757;BME280;41676;44.610;44.078;2022-12-05T01:22:00;102603.75;;;-5.27;92.21
55757;BME280;41676;44.610;44.078;2022-12-05T01:27:00;102565.94;;;-5.49;92.07
55757;BME280;41676;44.610;44.078;2022-12-05T01:32:02;102611.56;;;-5.29;92.03
55757;BME280;41676;44.610;44.078;2022-12-05T01:37:03;102607.22;;;-5.25;92.21
55757;BME280;41676;44.610;44.078;2022-12-05T01:42:04;102567.72;;;-5.55;92.07
55757;BME280;41676;44.610;44.078;2022-12-05T01:47:06;102562.53;;;-5.55;91.89
55757;BME280;41676;44.610;44.078;2022-12-05T01:52:14;102602.88;;;-5.24;91.85
55757;BME280;41676;44.610;44.078;2022-12-05T01:57:16;102534.09;;;-5.65;91.40
55757;BME280;41676;44.610;44.078;2022-12-05T02:02:17;102580.53;;;-5.36;91.25
55757;BME280;41676;44.610;44.078;2022-12-05T02:07:18;102555.59;;;-5.49;91.37
55757;BME280;41676;44.610;44.078;2022-12-05T02:12:20;102533.16;;;-5.54;90.95
55757;BME280;41676;44.610;44.078;2022-12-05T02:23:01;102503.13;;;-5.76;91.41
55757;BME280;41676;44.610;44.078;2022-12-05T02:33:47;102427.50;;;-6.15;91.23
55757;BME280;41676;44.610;44.078;2022-12-05T02:44:14;102579.78;;;-5.54;91.30
55757;BME280;41676;44.610;44.078;2022-12-05T02:49:21;102510.22;;;-6.00;91.56
55757;BME280;41676;44.610;44.078;2022-12-05T02:54:26;102534.25;;;-5.85;91.68
55757;BME280;41676;44.610;44.078;2022-12-05T02:59:29;102523.91;;;-5.88;91.34
55757;BME280;41676;44.610;44.078;2022-12-05T03:04:30;102517.88;;;-5.90;91.16
55757;BME280;41676;44.610;44.078;2022-12-05T03:09:54;102506.66;;;-5.89;91.41
55757;BME280;41676;44.610;44.078;2022-12-05T03:15:03;102564.38;;;-5.74;91.04
55757;BME280;41676;44.610;44.078;2022-12-05T03:20:14;102533.38;;;-5.83;90.98
55757;BME280;41676;44.610;44.078;2022-12-05T03:25:24;102510.25;;;-6.06;90.89
55757;BME280;41676;44.610;44.078;2022-12-05T03:30:26;102578.97;;;-5.62;91.29
55757;BME280;41676;44.610;44.078;2022-12-05T03:40:34;102592.78;;;-5.61;91.26
55757;BME280;41676;44.610;44.078;2022-12-05T03:45:46;102525.75;;;-6.03;91.47
55757;BME280;41676;44.610;44.078;2022-12-05T03:50:51;102559.31;;;-5.92;91.74
55757;BME280;41676;44.610;44.078;2022-12-05T03:56:05;102583.34;;;-5.71;91.84
55757;BME280;41676;44.610;44.078;2022-12-05T04:01:08;102474.22;;;-6.43;91.33
55757;BME280;41676;44.610;44.078;2022-12-05T04:06:28;102569.59;;;-5.81;91.64
55757;BME280;41676;44.610;44.078;2022-12-05T04:11:33;102570.50;;;-5.88;91.86
55757;BME280;41676;44.610;44.078;2022-12-05T04:16:44;102532.75;;;-6.23;92.31
55757;BME280;41676;44.610;44.078;2022-12-05T04:22:04;102592.94;;;-5.90;92.34
55757;BME280;41676;44.610;44.078;2022-12-05T04:27:34;102584.38;;;-5.94;92.06
55757;BME280;41676;44.610;44.078;2022-12-05T04:32:46;102529.31;;;-6.27;92.36
55757;BME280;41676;44.610;44.078;2022-12-05T04:37:52;102509.53;;;-6.32;92.32
55757;BME280;41676;44.610;44.078;2022-12-05T04:42:57;102509.47;;;-6.22;91.95
55757;BME280;41676;44.610;44.078;2022-12-05T04:48:01;102563.59;;;-5.83;91.70
55757;BME280;41676;44.610;44.078;2022-12-05T04:53:05;102478.47;;;-6.29;91.45
55757;BME280;41676;44.610;44.078;2022-12-05T04:58:09;102612.72;;;-5.76;91.40
55757;BME280;41676;44.610;44.078;2022-12-05T05:03:20;102502.69;;;-6.47;91.84
55757;BME280;41676;44.610;44.078;2022-12-05T05:08:26;102609.25;;;-5.78;91.95
55757;BME280;41676;44.610;44.078;2022-12-05T05:13:28;102616.16;;;-5.70;91.39
55757;BME280;41676;44.610;44.078;2022-12-05T05:18:29;102621.28;;;-5.66;91.12
55757;BME280;41676;44.610;44.078;2022-12-05T05:23:30;102612.59;;;-5.53;90.93
55757;BME280;41676;44.610;44.078;2022-12-05T05:28:30;102499.03;;;-6.08;90.36
55757;BME280;41676;44.610;44.078;2022-12-05T05:33:32;102611.53;;;-5.27;90.38
55757;BME280;41676;44.610;44.078;2022-12-05T05:38:44;102620.25;;;-5.39;89.02
55757;BME280;41676;44.610;44.078;2022-12-05T05:43:46;102554.06;;;-5.84;89.87
55757;BME280;41676;44.610;44.078;2022-12-05T05:48:47;102571.09;;;-5.46;89.64
55757;BME280;41676;44.610;44.078;2022-12-05T05:53:48;102579.66;;;-5.37;89.01
55757;BME280;41676;44.610;44.078;2022-12-05T05:58:58;102525.47;;;-5.63;89.04
55757;BME280;41676;44.610;44.078;2022-12-05T06:03:59;102558.91;;;-5.34;88.83
55757;BME280;41676;44.610;44.078;2022-12-05T06:09:00;102455.38;;;-5.41;87.38
55757;BME280;41676;44.610;44.078;2022-12-05T06:14:00;102520.81;;;-5.21;86.71
55757;BME280;41676;44.610;44.078;2022-12-05T06:19:01;102563.66;;;-4.83;87.59
55757;BME280;41676;44.610;44.078;2022-12-05T06:24:02;102585.09;;;-4.66;86.16
55757;BME280;41676;44.610;44.078;2022-12-05T06:29:03;102607.59;;;-4.68;87.00
55757;BME280;41676;44.610;44.078;2022-12-05T06:34:04;102587.66;;;-4.63;86.97
55757;BME280;41676;44.610;44.078;2022-12-05T06:39:04;102514.41;;;-4.83;86.31
55757;BME280;41676;44.610;44.078;2022-12-05T06:44:05;102524.56;;;-4.63;85.44
55757;BME280;41676;44.610;44.078;2022-12-05T06:49:08;102593.03;;;-4.01;84.35
55757;BME280;41676;44.610;44.078;2022-12-05T06:54:11;102611.84;;;-3.86;84.87
55757;BME280;41676;44.610;44.078;2022-12-05T06:59:12;102527.41;;;-4.14;84.91
55757;BME280;41676;44.610;44.078;2022-12-05T07:04:16;102603.56;;;-3.50;84.32
55757;BME280;41676;44.610;44.078;2022-12-05T07:09:21;102556.28;;;-3.75;83.27
55757;BME280;41676;44.610;44.078;2022-12-05T07:14:43;102604.25;;;-3.37;84.16
55757;BME280;41676;44.610;44.078;2022-12-05T07:19:46;102590.41;;;-3.39;82.81
55757;BME280;41676;44.610;44.078;2022-12-05T07:24:50;102558.47;;;-3.47;83.90
55757;BME280;41676;44.610;44.078;2022-12-05T07:29:52;102582.94;;;-3.06;83.64
55757;BME280;41676;44.610;44.078;2022-12-05T07:34:52;102575.94;;;-3.01;84.13
55757;BME280;41676;44.610;44.078;2022-12-05T07:39:53;102522.69;;;-2.80;83.02
55757;BME280;41676;44.610;44.078;2022-12-05T07:44:54;102429.78;;;-3.18;82.58
55757;BME280;41676;44.610;44.078;2022-12-05T07:49:55;102446.66;;;-2.93;82.70
55757;BME280;41676;44.610;44.078;2022-12-05T07:54:56;102552.84;;;-1.85;82.45
55757;BME280;41676;44.610;44.078;2022-12-05T07:59:57;102502.56;;;-1.90;79.68
55757;BME280;41676;44.610;44.078;2022-12-05T08:04:58;102539.03;;;-1.90;81.17
55757;BME280;41676;44.610;44.078;2022-12-05T08:09:59;102496.00;;;-2.06;81.34
55757;BME280;41676;44.610;44.078;2022-12-05T08:15:00;102537.75;;;-1.70;80.70
55757;BME280;41676;44.610;44.078;2022-12-05T08:20:00;102507.59;;;-1.45;79.79
55757;BME280;41676;44.610;44.078;2022-12-05T08:25:02;102465.06;;;-1.83;79.22
55757;BME280;41676;44.610;44.078;2022-12-05T08:30:03;102466.66;;;-1.75;79.45
55757;BME280;41676;44.610;44.078;2022-12-05T08:35:04;102443.13;;;-1.72;79.91
55757;BME280;41676;44.610;44.078;2022-12-05T08:40:06;102486.78;;;-1.12;79.03
55757;BME280;41676;44.610;44.078;2022-12-05T08:45:07;102434.53;;;-1.42;78.37
55757;BME280;41676;44.610;44.078;2022-12-05T08:50:08;102500.78;;;-1.50;78.75
55757;BME280;41676;44.610;44.078;2022-12-05T08:55:09;102443.97;;;-1.72;79.88
55757;BME280;41676;44.610;44.078;2022-12-05T09:00:10;102395.44;;;-2.12;79.69
55757;BME280;41676;44.610;44.078;2022-12-05T09:05:11;102479.53;;;-1.35;79.38
55757;BME280;41676;44.610;44.078;2022-12-05T09:10:11;102486.22;;;-1.59;80.22
55757;BME280;41676;44.610;44.078;2022-12-05T09:15:12;102448.78;;;-1.55;80.57
55757;BME280;41676;44.610;44.078;2022-12-05T09:20:14;102360.81;;;-1.81;79.19
55757;BME280;41676;44.610;44.078;2022-12-05T09:25:15;102376.91;;;-1.65;79.54
55757;BME280;41676;44.610;44.078;2022-12-05T09:30:16;102433.94;;;-1.19;79.82
55757;BME280;41676;44.610;44.078;2022-12-05T09:35:17;102476.19;;;-1.06;79.43
55757;BME280;41676;44.610;44.078;2022-12-05T09:40:18;102429.72;;;-1.24;80.00
55757;BME280;41676;44.610;44.078;2022-12-05T09:45:34;102330.66;;;-1.90;80.11
55757;BME280;41676;44.610;44.078;2022-12-05T09:50:47;102434.69;;;-1.15;80.46
55757;BME280;41676;44.610;44.078;2022-12-05T09:56:05;102461.69;;;-0.85;79.94
55757;BME280;41676;44.610;44.078;2022-12-05T10:01:32;102445.91;;;-0.80;78.52
55757;BME280;41676;44.610;44.078;2022-12-05T10:06:46;102441.22;;;-0.69;79.53
55757;BME280;41676;44.610;44.078;2022-12-05T10:17:02;102426.16;;;-0.89;79.67
55757;BME280;41676;44.610;44.078;2022-12-05T10:22:15;102407.53;;;-1.08;80.57
55757;BME280;41676;44.610;44.078;2022-12-05T10:27:44;102405.66;;;-1.03;80.02
55757;BME280;41676;44.610;44.078;2022-12-05T10:33:01;102345.84;;;-1.40;80.10
55757;BME280;41676;44.610;44.078;2022-12-05T10:43:07;102421.63;;;-0.82;80.35
55757;BME280;41676;44.610;44.078;2022-12-05T10:48:17;102417.97;;;-0.77;80.05
55757;BME280;41676;44.610;44.078;2022-12-05T10:53:46;102392.50;;;-0.98;79.61
55757;BME280;41676;44.610;44.078;2022-12-05T10:58:56;102412.25;;;-0.89;79.58
55757;BME280;41676;44.610;44.078;2022-12-05T11:04:07;102325.53;;;-1.29;79.09
55757;BME280;41676;44.610;44.078;2022-12-05T11:09:17;102415.22;;;-0.72;79.20
55757;BME280;41676;44.610;44.078;2022-12-05T11:14:24;102390.97;;;-0.76;79.33
55757;BME280;41676;44.610;44.078;2022-12-05T11:24:34;102381.75;;;-0.58;78.26
55757;BME280;41676;44.610;44.078;2022-12-05T11:29:37;102379.09;;;-0.56;77.50
55757;BME280;41676;44.610;44.078;2022-12-05T11:35:07;102389.53;;;-0.56;77.32
55757;BME280;41676;44.610;44.078;2022-12-05T11:40:33;102385.34;;;-0.62;76.33
55757;BME280;41676;44.610;44.078;2022-12-05T11:46:05;102353.72;;;-0.81;78.13
55757;BME280;41676;44.610;44.078;2022-12-05T11:56:43;102339.38;;;-1.25;78.53
55757;BME280;41676;44.610;44.078;2022-12-05T12:33:45;102357.38;;;-0.86;78.15
55757;BME280;41676;44.610;44.078;2022-12-05T12:44:39;102317.47;;;-1.20;77.10
55757;BME280;41676;44.610;44.078;2022-12-05T12:50:21;102311.56;;;-1.26;77.04
55757;BME280;41676;44.610;44.078;2022-12-05T13:00:49;102254.84;;;-1.80;78.37
55757;BME280;41676;44.610;44.078;2022-12-05T13:06:03;102377.13;;;-1.09;78.45
55757;BME280;41676;44.610;44.078;2022-12-05T13:11:09;102267.97;;;-1.84;78.52
55757;BME280;41676;44.610;44.078;2022-12-05T13:16:20;102350.13;;;-1.38;78.02
55757;BME280;41676;44.610;44.078;2022-12-05T13:21:24;102375.97;;;-1.28;79.13
55757;BME280;41676;44.610;44.078;2022-12-05T13:26:25;102347.97;;;-1.54;79.04
55757;BME280;41676;44.610;44.078;2022-12-05T13:31:43;102336.13;;;-1.66;79.38
55757;BME280;41676;44.610;44.078;2022-12-05T13:36:45;102367.06;;;-1.54;79.49
55757;BME280;41676;44.610;44.078;2022-12-05T13:42:05;102340.66;;;-1.74;80.05
55757;BME280;41676;44.610;44.078;2022-12-05T13:47:52;102392.22;;;-1.53;80.43
55757;BME280;41676;44.610;44.078;2022-12-05T13:52:48;102279.19;;;-2.14;80.59
55757;BME280;41676;44.610;44.078;2022-12-05T13:57:56;102364.09;;;-1.73;80.21
55757;BME280;41676;44.610;44.078;2022-12-05T14:03:16;102340.16;;;-1.89;81.09
55757;BME280;41676;44.610;44.078;2022-12-05T14:13:41;102375.03;;;-1.58;80.59
55757;BME280;41676;44.610;44.078;2022-12-05T14:18:56;102345.13;;;-1.78;80.56
55757;BME280;41676;44.610;44.078;2022-12-05T14:29:51;102293.03;;;-2.12;81.57
55757;BME280;41676;44.610;44.078;2022-12-05T14:35:03;102368.66;;;-1.83;81.22
55757;BME280;41676;44.610;44.078;2022-12-05T14:40:26;102349.09;;;-1.97;81.77
55757;BME280;41676;44.610;44.078;2022-12-05T14:45:35;102384.25;;;-1.79;81.86
55757;BME280;41676;44.610;44.078;2022-12-05T14:50:44;102384.28;;;-1.83;82.16
55757;BME280;41676;44.610;44.078;2022-12-05T14:56:19;102375.69;;;-1.85;81.85
55757;BME280;41676;44.610;44.078;2022-12-05T15:02:23;102374.91;;;-1.88;81.74
55757;BME280;41676;44.610;44.078;2022-12-05T15:12:04;102359.53;;;-1.99;82.19
55757;BME280;41676;44.610;44.078;2022-12-05T15:17:11;102368.44;;;-2.08;81.93
55757;BME280;41676;44.610;44.078;2022-12-05T15:22:16;102353.03;;;-2.17;81.74
55757;BME280;41676;44.610;44.078;2022-12-05T15:27:19;102295.81;;;-2.54;81.73
55757;BME280;41676;44.610;44.078;2022-12-05T15:32:24;102379.81;;;-2.12;81.19
55757;BME280;41676;44.610;44.078;2022-12-05T15:47:34;102338.28;;;-2.54;81.00
55757;BME280;41676;44.610;44.078;2022-12-05T15:52:54;102373.38;;;-2.33;81.19
55757;BME280;41676;44.610;44.078;2022-12-05T15:58:03;102374.44;;;-2.43;81.92
55757;BME280;41676;44.610;44.078;2022-12-05T16:03:25;102360.91;;;-2.57;81.21
55757;BME280;41676;44.610;44.078;2022-12-05T16:08:27;102250.03;;;-3.40;81.31
55757;BME280;41676;44.610;44.078;2022-12-05T16:13:47;102364.78;;;-2.75;81.57
55757;BME280;41676;44.610;44.078;2022-12-05T16:18:55;102324.69;;;-3.07;81.86
55757;BME280;41676;44.610;44.078;2022-12-05T16:24:19;102385.59;;;-2.77;82.18
55757;BME280;41676;44.610;44.078;2022-12-05T16:29:30;102312.16;;;-3.28;81.92
55757;BME280;41676;44.610;44.078;2022-12-05T16:34:32;102345.69;;;-3.16;81.80
55757;BME280;41676;44.610;44.078;2022-12-05T16:39:33;102375.66;;;-2.98;81.45
55757;BME280;41676;44.610;44.078;2022-12-05T16:49:47;102333.97;;;-3.37;81.54
55757;BME280;41676;44.610;44.078;2022-12-05T16:54:48;102367.44;;;-3.20;82.04
55757;BME280;41676;44.610;44.078;2022-12-05T16:59:49;102363.47;;;-3.38;82.30
55757;BME280;41676;44.610;44.078;2022-12-05T17:04:51;102355.06;;;-3.54;82.33
55757;BME280;41676;44.610;44.078;2022-12-05T17:09:52;102369.69;;;-3.48;82.96
55757;BME280;41676;44.610;44.078;2022-12-05T17:14:53;102361.00;;;-3.47;82.66
55757;BME280;41676;44.610;44.078;2022-12-05T17:19:53;102346.53;;;-3.60;82.46
55757;BME280;41676;44.610;44.078;2022-12-05T17:24:54;102301.31;;;-3.98;83.17
55757;BME280;41676;44.610;44.078;2022-12-05T17:29:58;102353.47;;;-3.61;83.33
55757;BME280;41676;44.610;44.078;2022-12-05T17:34:58;102344.22;;;-3.77;83.35
55757;BME280;41676;44.610;44.078;2022-12-05T17:39:59;102366.41;;;-3.58;83.38
55757;BME280;41676;44.610;44.078;2022-12-05T17:45:00;102343.31;;;-3.75;83.59
55757;BME280;41676;44.610;44.078;2022-12-05T17:50:02;102301.38;;;-4.01;83.31
55757;BME280;41676;44.610;44.078;2022-12-05T17:55:04;102347.53;;;-3.68;83.70
55757;BME280;41676;44.610;44.078;2022-12-05T18:00:05;102348.63;;;-3.79;84.15
55757;BME280;41676;44.610;44.078;2022-12-05T18:05:07;102356.41;;;-3.79;83.57
55757;BME280;41676;44.610;44.078;2022-12-05T18:10:12;102332.34;;;-3.91;83.92
55757;BME280;41676;44.610;44.078;2022-12-05T18:15:13;102340.16;;;-3.92;83.52
55757;BME280;41676;44.610;44.078;2022-12-05T18:20:14;102302.69;;;-4.28;83.73
55757;BME280;41676;44.610;44.078;2022-12-05T18:25:15;102271.97;;;-4.51;83.60
55757;BME280;41676;44.610;44.078;2022-12-05T18:30:16;102251.31;;;-4.57;83.88
55757;BME280;41676;44.610;44.078;2022-12-05T18:35:17;102245.44;;;-4.69;83.52
55757;BME280;41676;44.610;44.078;2022-12-05T18:40:18;102319.25;;;-4.36;83.93
55757;BME280;41676;44.610;44.078;2022-12-05T18:45:19;102326.25;;;-4.39;84.46
55757;BME280;41676;44.610;44.078;2022-12-05T18:50:21;102319.31;;;-4.40;84.44
55757;BME280;41676;44.610;44.078;2022-12-05T18:55:21;102328.84;;;-4.39;84.27
55757;BME280;41676;44.610;44.078;2022-12-05T19:00:23;102333.31;;;-4.50;84.36
55757;BME280;41676;44.610;44.078;2022-12-05T19:05:23;102311.91;;;-4.65;84.76
55757;BME280;41676;44.610;44.078;2022-12-05T19:10:24;102311.94;;;-4.66;84.82
55757;BME280;41676;44.610;44.078;2022-12-05T19:15:25;102293.22;;;-4.88;84.68
55757;BME280;41676;44.610;44.078;2022-12-05T19:20:26;102300.09;;;-4.84;84.79
55757;BME280;41676;44.610;44.078;2022-12-05T19:25:30;102324.13;;;-4.71;84.95
55757;BME280;41676;44.610;44.078;2022-12-05T19:30:30;102322.38;;;-4.71;85.06
55757;BME280;41676;44.610;44.078;2022-12-05T19:35:34;102248.88;;;-5.30;85.01
55757;BME280;41676;44.610;44.078;2022-12-05T19:40:36;102319.16;;;-4.88;85.15
55757;BME280;41676;44.610;44.078;2022-12-05T19:45:37;102302.06;;;-5.01;85.52
55757;BME280;41676;44.610;44.078;2022-12-05T19:50:38;102226.69;;;-5.49;85.20
55757;BME280;41676;44.610;44.078;2022-12-05T19:55:38;102286.75;;;-5.21;85.97
55757;BME280;41676;44.610;44.078;2022-12-05T20:00:39;102285.25;;;-5.39;86.82
55757;BME280;41676;44.610;44.078;2022-12-05T20:05:40;102310.94;;;-5.19;86.46
55757;BME280;41676;44.610;44.078;2022-12-05T20:10:41;102288.72;;;-5.42;86.10
55757;BME280;41676;44.610;44.078;2022-12-05T20:15:42;102305.16;;;-5.44;86.04
55757;BME280;41676;44.610;44.078;2022-12-05T20:20:43;102305.94;;;-5.36;86.63
55757;BME280;41676;44.610;44.078;2022-12-05T20:25:44;102307.75;;;-5.41;86.62
55757;BME280;41676;44.610;44.078;2022-12-05T20:30:45;102293.25;;;-5.56;86.19
55757;BME280;41676;44.610;44.078;2022-12-05T20:35:45;102338.84;;;-5.41;86.46
55757;BME280;41676;44.610;44.078;2022-12-05T20:40:46;102315.56;;;-5.47;86.37
55757;BME280;41676;44.610;44.078;2022-12-05T20:45:47;102300.16;;;-5.60;86.15
55757;BME280;41676;44.610;44.078;2022-12-05T20:50:48;102285.66;;;-5.73;86.30
55757;BME280;41676;44.610;44.078;2022-12-05T20:55:48;102304.53;;;-5.62;86.46
55757;BME280;41676;44.610;44.078;2022-12-05T21:00:56;102286.47;;;-5.68;86.26
55757;BME280;41676;44.610;44.078;2022-12-05T21:05:58;102276.97;;;-5.69;86.09
55757;BME280;41676;44.610;44.078;2022-12-05T21:10:59;102280.53;;;-5.79;85.53
55757;BME280;41676;44.610;44.078;2022-12-05T21:16:26;102284.91;;;-5.83;85.73
55757;BME280;41676;44.610;44.078;2022-12-05T21:21:28;102262.72;;;-6.04;85.31
55757;BME280;41676;44.610;44.078;2022-12-05T21:26:30;102213.81;;;-6.34;85.46
55757;BME280;41676;44.610;44.078;2022-12-05T21:31:34;102231.84;;;-6.25;84.72
55757;BME280;41676;44.610;44.078;2022-12-05T21:36:35;102218.03;;;-6.21;84.13
55757;BME280;41676;44.610;44.078;2022-12-05T21:41:37;102249.72;;;-5.98;82.71
55757;BME280;41676;44.610;44.078;2022-12-05T21:46:38;102217.16;;;-6.18;81.74
55757;BME280;41676;44.610;44.078;2022-12-05T21:51:39;102209.47;;;-6.29;79.71
55757;BME280;41676;44.610;44.078;2022-12-05T21:56:40;102216.34;;;-6.28;80.27
55757;BME280;41676;44.610;44.078;2022-12-05T22:01:41;102257.53;;;-6.04;80.52
55757;BME280;41676;44.610;44.078;2022-12-05T22:06:42;102227.50;;;-6.20;79.45
55757;BME280;41676;44.610;44.078;2022-12-05T22:11:43;102224.13;;;-6.28;79.61
55757;BME280;41676;44.610;44.078;2022-12-05T22:16:43;102176.94;;;-6.52;79.72
55757;BME280;41676;44.610;44.078;2022-12-05T22:21:44;102251.44;;;-6.00;80.59
55757;BME280;41676;44.610;44.078;2022-12-05T22:26:45;102175.97;;;-6.41;80.06
55757;BME280;41676;44.610;44.078;2022-12-05T22:31:46;102241.81;;;-5.90;80.09
55757;BME280;41676;44.610;44.078;2022-12-05T22:36:47;102259.91;;;-5.85;79.48
55757;BME280;41676;44.610;44.078;2022-12-05T22:41:49;102218.72;;;-6.04;79.81
55757;BME280;41676;44.610;44.078;2022-12-05T22:46:50;102211.03;;;-6.10;79.55
55757;BME280;41676;44.610;44.078;2022-12-05T22:51:50;102229.03;;;-6.02;79.67
55757;BME280;41676;44.610;44.078;2022-12-05T22:56:51;102142.53;;;-6.58;80.04
55757;BME280;41676;44.610;44.078;2022-12-05T23:01:52;102273.72;;;-5.89;80.21
55757;BME280;41676;44.610;44.078;2022-12-05T23:06:53;102187.03;;;-6.26;80.42
55757;BME280;41676;44.610;44.078;2022-12-05T23:11:54;102258.97;;;-5.80;80.80
55757;BME280;41676;44.610;44.078;2022-12-05T23:16:55;102217.91;;;-6.10;80.58
55757;BME280;41676;44.610;44.078;2022-12-05T23:21:55;102247.78;;;-5.80;80.62
55757;BME280;41676;44.610;44.078;2022-12-05T23:26:56;102157.78;;;-6.32;80.90
55757;BME280;41676;44.610;44.078;2022-12-05T23:31:57;102149.97;;;-6.25;80.96
55757;BME280;41676;44.610;44.078;2022-12-05T23:36:58;102135.47;;;-6.41;81.11
55757;BME280;41676;44.610;44.078;2022-12-05T23:41:59;102227.91;;;-5.80;81.26
55757;BME280;41676;44.610;44.078;2022-12-05T23:47:00;102228.84;;;-5.85;81.56
55757;BME280;41676;44.610;44.078;2022-12-05T23:52:00;102179.97;;;-6.10;81.87
55757;BME280;41676;44.610;44.078;2022-12-05T23:57:01;102206.41;;;-5.86;82.09
